Time;durP1;ratioP1;P1;durP2;ratioP2;P2;SDS_P1;SDS_P2;PMS_P1;PMS_P2;Temp;Humidity;BMP_temperature;BMP_pressure;BME280_temperature;BME280_humidity;BME280_pressure;Samples;Min_cycle;Max_cycle;Signal;HPM_P1;HPM_P2
2021/11/04 05:02:22;;;;;;;33.80;19.55;;;7.80;99.90;;;;;;5071131;23;20303;-71
2021/11/04 05:04:49;;;;;;;39.22;21.17;;;7.80;99.90;;;;;;4939675;29;20213;-71
2021/11/04 05:07:16;;;;;;;32.20;18.95;;;7.80;99.90;;;;;;4933674;29;20260;-72
2021/11/04 05:09:43;;;;;;;37.40;20.60;;;7.80;99.90;;;;;;4936649;29;20245;-72
2021/11/04 05:12:10;;;;;;;37.00;21.00;;;7.80;99.90;;;;;;4917654;29;20230;-72
2021/11/04 05:14:37;;;;;;;41.55;21.50;;;7.80;99.90;;;;;;4924541;29;20242;-71
2021/11/04 05:17:04;;;;;;;41.95;22.27;;;7.80;99.90;;;;;;4915351;29;20627;-72
2021/11/04 05:19:32;;;;;;;45.22;21.77;;;7.80;99.90;;;;;;4922553;29;20206;-71
2021/11/04 05:21:59;;;;;;;37.50;19.50;;;7.80;99.90;;;;;;4916529;29;20884;-72
2021/11/04 05:24:26;;;;;;;36.20;20.52;;;7.80;99.90;;;;;;4916841;29;20614;-72
2021/11/04 05:26:52;;;;;;;39.20;21.60;;;7.80;99.90;;;;;;4933911;29;20671;-72
2021/11/04 05:29:19;;;;;;;39.17;20.33;;;7.80;99.90;;;;;;4927142;29;20297;-72
2021/11/04 05:31:46;;;;;;;40.45;21.20;;;7.80;99.90;;;;;;4933870;29;20222;-72
2021/11/04 05:34:13;;;;;;;39.53;20.30;;;7.80;99.90;;;;;;4928944;29;20301;-72
2021/11/04 05:36:41;;;;;;;36.35;21.08;;;7.80;99.90;;;;;;4933516;29;20217;-71
2021/11/04 05:39:08;;;;;;;36.92;19.48;;;7.80;99.90;;;;;;4928091;29;20220;-71
2021/11/04 05:41:34;;;;;;;43.58;20.52;;;7.80;99.90;;;;;;4930047;29;20254;-72
2021/11/04 05:44:01;;;;;;;39.35;20.42;;;7.80;99.90;;;;;;4916196;29;20280;-71
2021/11/04 05:46:28;;;;;;;37.22;19.52;;;7.80;99.90;;;;;;4931975;29;20217;-72
2021/11/04 05:48:54;;;;;;;41.15;19.92;;;7.80;99.90;;;;;;4914601;29;20218;-72
2021/11/04 05:51:21;;;;;;;40.25;21.23;;;7.80;99.90;;;;;;4917702;29;20221;-71
2021/11/04 05:53:49;;;;;;;36.53;19.98;;;7.80;99.90;;;;;;4895429;29;20214;-71
2021/11/04 05:56:16;;;;;;;37.50;20.17;;;7.80;99.90;;;;;;4917784;29;20234;-71
2021/11/04 05:58:43;;;;;;;40.15;21.00;;;7.80;99.90;;;;;;4913109;29;20615;-71
2021/11/04 06:01:09;;;;;;;35.55;19.02;;;7.80;99.90;;;;;;4911398;29;20274;-70
2021/11/04 06:03:36;;;;;;;30.15;19.35;;;7.80;99.90;;;;;;4914275;29;20206;-71
2021/11/04 06:06:03;;;;;;;35.13;19.42;;;7.80;99.90;;;;;;4917104;29;20221;-71
2021/11/04 06:08:29;;;;;;;32.40;18.77;;;7.80;99.90;;;;;;4914154;29;20222;-71
2021/11/04 06:10:57;;;;;;;40.45;19.77;;;7.80;99.90;;;;;;4916775;29;20223;-71
2021/11/04 06:13:24;;;;;;;38.17;19.98;;;7.80;99.90;;;;;;4917504;29;20210;-71
2021/11/04 06:15:51;;;;;;;39.55;20.30;;;7.80;99.90;;;;;;4913921;29;20305;-71
2021/11/04 06:18:17;;;;;;;39.28;19.80;;;7.80;99.90;;;;;;4926731;29;20206;-71
2021/11/04 06:20:44;;;;;;;32.47;19.17;;;7.80;99.90;;;;;;4911982;29;20231;-71
2021/11/04 06:23:11;;;;;;;32.97;16.95;;;7.80;99.90;;;;;;4917737;29;20256;-72
2021/11/04 06:25:37;;;;;;;32.42;18.38;;;7.80;99.90;;;;;;4919325;29;20210;-71
2021/11/04 06:28:05;;;;;;;36.80;19.90;;;7.80;99.90;;;;;;4923576;29;20609;-74
2021/11/04 06:30:32;;;;;;;32.97;17.77;;;7.80;99.90;;;;;;4915265;29;20593;-72
2021/11/04 06:32:59;;;;;;;34.45;19.17;;;7.80;99.90;;;;;;4900667;29;20739;-72
2021/11/04 06:35:25;;;;;;;31.88;17.25;;;7.80;99.90;;;;;;4894518;29;20277;-72
2021/11/04 06:37:52;;;;;;;30.60;16.95;;;7.80;99.90;;;;;;4906658;29;20562;-72
2021/11/04 06:40:24;;;;;;;34.55;17.63;;;7.80;99.90;;;;;;4911766;29;20572;-72
2021/11/04 06:42:51;;;;;;;27.10;17.48;;;7.80;99.90;;;;;;4909900;29;20242;-72
2021/11/04 06:45:19;;;;;;;26.77;15.73;;;7.70;99.90;;;;;;4917312;29;20210;-71
2021/11/04 06:47:48;;;;;;;27.63;15.98;;;7.70;99.90;;;;;;4917208;29;20207;-72
2021/11/04 06:50:17;;;;;;;37.35;18.65;;;7.70;99.90;;;;;;4916698;29;20245;-72
2021/11/04 06:52:49;;;;;;;26.70;17.58;;;7.70;99.90;;;;;;4917340;29;20222;-72
2021/11/04 06:55:16;;;;;;;26.50;15.55;;;7.80;99.90;;;;;;4916855;29;20376;-72
2021/11/04 06:57:44;;;;;;;25.08;16.83;;;7.80;99.90;;;;;;4936564;29;20587;-72
2021/11/04 07:00:12;;;;;;;27.92;15.75;;;7.80;99.90;;;;;;4920299;29;20226;-72
2021/11/04 07:02:43;;;;;;;25.27;16.77;;;7.80;99.90;;;;;;4917458;29;20210;-72
2021/11/04 07:05:12;;;;;;;28.98;17.20;;;7.80;99.90;;;;;;4912267;29;20256;-72
2021/11/04 07:07:45;;;;;;;30.17;15.60;;;7.80;99.90;;;;;;4933883;29;20210;-72
2021/11/04 07:10:13;;;;;;;24.38;16.20;;;7.80;99.90;;;;;;4921825;29;20206;-72
2021/11/04 07:12:44;;;;;;;27.35;15.45;;;7.80;99.90;;;;;;4917234;29;20211;-72
2021/11/04 07:15:11;;;;;;;24.48;16.25;;;7.70;99.90;;;;;;4903823;29;20293;-72
2021/11/04 07:17:42;;;;;;;25.38;15.38;;;7.80;99.90;;;;;;4911609;29;20217;-72
2021/11/04 07:20:10;;;;;;;26.00;14.80;;;7.80;99.90;;;;;;4926482;29;20203;-73
2021/11/04 07:22:40;;;;;;;24.08;14.18;;;7.80;99.90;;;;;;4912474;29;20238;-73
2021/11/04 07:25:08;;;;;;;27.45;14.88;;;7.80;99.90;;;;;;4927302;29;20238;-73
2021/11/04 07:27:57;;;;;;;21.20;13.85;;;7.80;99.90;;;;;;4916685;29;20211;-73
2021/11/04 07:30:25;;;;;;;24.13;13.85;;;7.80;99.90;;;;;;4916366;29;20219;-73
2021/11/04 07:32:55;;;;;;;22.95;13.15;;;7.80;99.90;;;;;;4907637;29;20207;-73
2021/11/04 07:35:23;;;;;;;22.80;13.65;;;7.80;99.90;;;;;;4924924;29;20253;-72
2021/11/04 07:37:51;;;;;;;20.00;12.07;;;7.80;99.90;;;;;;4910975;29;20264;-72
2021/11/04 07:40:20;;;;;;;22.52;12.32;;;7.80;99.90;;;;;;4914150;29;20281;-74
2021/11/04 07:42:47;;;;;;;17.70;11.55;;;7.80;99.90;;;;;;4915982;29;20206;-73
2021/11/04 07:45:15;;;;;;;22.90;12.40;;;7.80;99.90;;;;;;4908782;29;20211;-73
2021/11/04 07:47:43;;;;;;;20.17;11.38;;;7.80;99.90;;;;;;4915163;29;20207;-73
2021/11/04 07:50:15;;;;;;;14.57;10.35;;;7.80;99.90;;;;;;4916710;29;20217;-73
2021/11/04 07:52:42;;;;;;;15.05;9.05;;;7.80;99.90;;;;;;4916588;29;20644;-73
2021/11/04 07:55:10;;;;;;;16.48;11.32;;;7.80;99.90;;;;;;4935096;29;20571;-73
2021/11/04 07:57:38;;;;;;;18.17;10.13;;;7.80;99.90;;;;;;4924992;29;20488;-72
2021/11/04 08:00:07;;;;;;;15.38;10.05;;;7.80;99.90;;;;;;4930938;29;20205;-73
2021/11/04 08:02:34;;;;;;;21.27;9.93;;;7.80;99.90;;;;;;4915878;29;20324;-73
2021/11/04 08:05:01;;;;;;;19.00;10.50;;;7.80;99.90;;;;;;4916527;29;20214;-72
2021/11/04 08:07:33;;;;;;;14.80;8.23;;;7.80;99.90;;;;;;4924956;29;20207;-72
2021/11/04 08:10:00;;;;;;;15.00;9.98;;;7.80;99.90;;;;;;4910840;29;20211;-71
2021/11/04 08:12:27;;;;;;;18.45;10.60;;;7.90;99.90;;;;;;4918233;29;20222;-73
2021/11/04 08:14:53;;;;;;;16.38;10.10;;;7.90;99.90;;;;;;4906626;29;20215;-74
2021/11/04 08:17:20;;;;;;;16.35;9.68;;;7.90;99.90;;;;;;4912176;29;20238;-72
2021/11/04 08:19:47;;;;;;;15.93;9.02;;;7.80;99.90;;;;;;4918064;29;20207;-73
2021/11/04 08:22:14;;;;;;;18.90;11.45;;;7.80;99.90;;;;;;4909033;29;20235;-66
2021/11/04 08:24:42;;;;;;;15.75;9.07;;;7.80;99.90;;;;;;4909896;29;20236;-73
2021/11/04 08:27:09;;;;;;;15.35;9.85;;;7.90;99.90;;;;;;4913786;29;20208;-72
2021/11/04 08:29:35;;;;;;;13.65;9.18;;;7.90;99.90;;;;;;4929829;29;20218;-71
2021/11/04 08:32:02;;;;;;;19.90;11.30;;;7.90;99.90;;;;;;4919178;29;20225;-73
2021/11/04 08:34:29;;;;;;;20.60;9.88;;;8.00;99.90;;;;;;4921312;29;20203;-73
2021/11/04 08:36:56;;;;;;;17.40;10.85;;;8.00;99.90;;;;;;4901488;29;20263;-72
2021/11/04 08:39:22;;;;;;;19.70;10.48;;;8.00;99.90;;;;;;4919692;29;20199;-72
2021/11/04 08:41:50;;;;;;;18.90;10.38;;;8.00;99.90;;;;;;4916518;29;20286;-73
2021/11/04 08:44:17;;;;;;;17.33;10.50;;;8.10;99.90;;;;;;4914433;29;20563;-73
2021/11/04 08:46:44;;;;;;;23.35;10.80;;;8.10;99.90;;;;;;4898254;29;20286;-73
2021/11/04 08:49:11;;;;;;;19.58;11.48;;;8.00;99.90;;;;;;4905557;29;20210;-73
2021/11/04 08:51:39;;;;;;;22.25;11.90;;;8.10;99.90;;;;;;4918918;29;20229;-72
2021/11/04 08:54:05;;;;;;;16.58;11.05;;;8.10;99.90;;;;;;4916710;29;20727;-73
2021/11/04 08:56:34;;;;;;;19.50;11.25;;;8.10;99.90;;;;;;4916819;29;20590;-72
2021/11/04 08:59:02;;;;;;;22.35;11.57;;;8.20;99.90;;;;;;4913974;29;20221;-72
2021/11/04 09:01:30;;;;;;;22.10;12.57;;;8.20;99.90;;;;;;4914721;29;20277;-73
2021/11/04 09:03:57;;;;;;;23.08;11.05;;;8.20;99.90;;;;;;4915087;29;20210;-72
2021/11/04 09:06:24;;;;;;;19.50;11.93;;;8.20;99.90;;;;;;4898888;29;20257;-72
2021/11/04 09:08:51;;;;;;;26.10;12.65;;;8.30;99.90;;;;;;4925472;29;20238;-72
2021/11/04 09:11:17;;;;;;;24.48;13.02;;;8.30;99.90;;;;;;4899904;29;20275;-73
2021/11/04 09:13:44;;;;;;;26.55;13.35;;;8.30;99.90;;;;;;4905554;29;20221;-73
2021/11/04 09:16:12;;;;;;;22.40;13.80;;;8.40;99.90;;;;;;4899470;29;20266;-73
2021/11/04 09:18:39;;;;;;;24.88;14.13;;;8.40;99.90;;;;;;4915273;29;20249;-73
2021/11/04 09:21:05;;;;;;;24.42;13.15;;;8.40;99.90;;;;;;4914475;29;20357;-73
2021/11/04 09:23:32;;;;;;;26.15;13.63;;;8.40;99.90;;;;;;4907019;29;20211;-73
2021/11/04 09:25:59;;;;;;;27.65;14.07;;;8.40;99.90;;;;;;4907447;29;20561;-73
2021/11/04 09:28:25;;;;;;;22.25;12.75;;;8.40;99.90;;;;;;4924939;29;20209;-73
2021/11/04 09:30:52;;;;;;;27.27;13.93;;;8.40;99.90;;;;;;4921823;29;20234;-72
2021/11/04 09:33:20;;;;;;;27.88;15.27;;;8.40;99.90;;;;;;4914259;29;20199;-74
2021/11/04 09:35:49;;;;;;;28.45;14.77;;;8.40;99.90;;;;;;4914480;29;20274;-73
2021/11/04 09:38:16;;;;;;;23.40;12.90;;;8.40;99.90;;;;;;4918538;29;20265;-73
2021/11/04 09:40:42;;;;;;;24.17;11.95;;;8.40;99.90;;;;;;4913442;29;20242;-71
2021/11/04 09:43:09;;;;;;;23.33;12.85;;;8.40;99.90;;;;;;4927763;29;20591;-72
2021/11/04 09:45:36;;;;;;;24.45;13.93;;;8.40;99.90;;;;;;4920722;29;20206;-72
2021/11/04 09:48:04;;;;;;;23.30;13.60;;;8.50;99.90;;;;;;4926009;29;20682;-72
2021/11/04 09:50:33;;;;;;;27.90;13.63;;;8.50;99.90;;;;;;4914420;29;20203;-72
2021/11/04 09:53:00;;;;;;;20.42;12.77;;;8.60;99.90;;;;;;4919127;29;20199;-72
2021/11/04 09:55:28;;;;;;;20.70;12.32;;;8.60;99.90;;;;;;4927118;29;20292;-71
2021/11/04 09:57:57;;;;;;;28.83;13.88;;;8.60;99.90;;;;;;4926259;29;20221;-71
2021/11/04 10:00:34;;;;;;;25.27;14.30;;;8.60;99.90;;;;;;4933155;29;20591;-72
2021/11/04 10:03:02;;;;;;;25.15;14.02;;;8.70;99.90;;;;;;4923845;29;20758;-72
2021/11/04 10:05:29;;;;;;;24.50;13.27;;;8.60;99.90;;;;;;4915111;29;20910;-72
2021/11/04 10:07:59;;;;;;;28.48;14.77;;;8.70;99.90;;;;;;4925109;29;20254;-72
2021/11/04 10:10:26;;;;;;;26.92;15.65;;;8.70;99.90;;;;;;4924826;29;20234;-71
2021/11/04 10:13:03;;;;;;;22.75;14.10;;;8.70;99.90;;;;;;4919303;29;20203;-72
2021/11/04 10:15:31;;;;;;;28.23;14.35;;;8.70;99.90;;;;;;4923753;29;20292;-72
2021/11/04 10:18:17;;;;;;;26.48;15.55;;;8.70;99.90;;;;;;4918227;29;20210;-72
2021/11/04 10:20:53;;;;;;;25.30;15.18;;;8.70;99.90;;;;;;4918108;29;20222;-72
2021/11/04 10:23:21;;;;;;;29.55;15.40;;;8.80;99.90;;;;;;4915268;29;20240;-71
2021/11/04 10:25:48;;;;;;;34.70;15.70;;;8.80;99.90;;;;;;4930092;29;20251;-71
2021/11/04 10:28:24;;;;;;;28.92;15.07;;;8.80;99.90;;;;;;4921412;29;20277;-71
2021/11/04 10:30:51;;;;;;;28.15;15.00;;;8.80;99.90;;;;;;4906740;29;20246;-71
2021/11/04 10:33:20;;;;;;;28.85;16.00;;;8.80;99.90;;;;;;4921090;29;20199;-70
2021/11/04 10:35:55;;;;;;;28.35;15.10;;;8.80;99.90;;;;;;4919586;29;20213;-71
2021/11/04 10:38:29;;;;;;;29.48;16.25;;;8.80;99.90;;;;;;4900268;29;20207;-72
2021/11/04 10:40:55;;;;;;;30.10;15.63;;;8.80;99.90;;;;;;4936707;29;20242;-72
2021/11/04 10:43:22;;;;;;;31.52;16.40;;;8.90;99.90;;;;;;4921629;29;20222;-72
2021/11/04 10:46:05;;;;;;;30.10;17.23;;;8.90;99.90;;;;;;4907006;29;20217;-72
2021/11/04 10:48:32;;;;;;;34.60;17.67;;;8.90;99.90;;;;;;4924407;29;20697;-72
2021/11/04 10:50:59;;;;;;;33.55;17.02;;;8.90;99.90;;;;;;4916924;29;20237;-70
2021/11/04 10:53:27;;;;;;;35.80;17.90;;;9.00;99.90;;;;;;4931231;29;20250;-71
2021/11/04 10:55:55;;;;;;;35.85;18.58;;;9.00;99.90;;;;;;4916694;29;20242;-70
2021/11/04 10:58:34;;;;;;;37.70;19.02;;;9.00;99.90;;;;;;4910190;29;20215;-72
2021/11/04 11:01:02;;;;;;;32.00;18.52;;;9.00;99.90;;;;;;4917505;29;20241;-71
2021/11/04 11:03:30;;;;;;;35.13;17.50;;;9.00;99.90;;;;;;4917267;29;20222;-71
2021/11/04 11:05:59;;;;;;;33.63;18.20;;;9.00;99.90;;;;;;4916497;29;20313;-71
2021/11/04 11:08:28;;;;;;;36.05;19.17;;;9.00;99.90;;;;;;4917122;29;20215;-70
2021/11/04 11:10:55;;;;;;;37.63;18.88;;;9.00;99.90;;;;;;4916541;29;20321;-71
2021/11/04 11:13:22;;;;;;;32.80;17.42;;;9.00;99.90;;;;;;4917345;29;20202;-71
2021/11/04 11:15:53;;;;;;;33.08;16.92;;;9.00;99.90;;;;;;4916722;29;20270;-71
2021/11/04 11:18:23;;;;;;;36.40;18.75;;;9.00;99.90;;;;;;4917031;29;20214;-71
2021/11/04 11:20:51;;;;;;;30.67;18.15;;;9.00;99.90;;;;;;4916378;29;20591;-71
2021/11/04 11:23:20;;;;;;;34.53;18.77;;;9.00;99.90;;;;;;4913877;29;20278;-70
2021/11/04 11:25:50;;;;;;;32.95;19.17;;;9.00;99.90;;;;;;4897178;29;20271;-70
2021/11/04 11:28:18;;;;;;;35.17;18.80;;;9.00;99.90;;;;;;4896907;29;20226;-70
2021/11/04 11:31:18;;;;;;;32.15;18.08;;;9.00;99.90;;;;;;4897711;29;20735;-71
2021/11/04 11:33:47;;;;;;;34.03;19.17;;;9.00;99.90;;;;;;4903511;29;20254;-71
2021/11/04 11:36:17;;;;;;;31.73;17.40;;;9.00;99.90;;;;;;4916064;29;20218;-71
2021/11/04 11:39:10;;;;;;;33.78;17.65;;;9.00;99.90;;;;;;4915997;29;20211;-71
2021/11/04 11:42:10;;;;;;;27.90;16.92;;;9.00;99.90;;;;;;4916365;29;20235;-72
2021/11/04 11:44:47;;;;;;;28.52;17.33;;;9.00;99.90;;;;;;4903817;29;20659;-71
2021/11/04 11:47:15;;;;;;;25.10;15.68;;;8.90;99.90;;;;;;4897544;29;20210;-71
2021/11/04 11:49:43;;;;;;;28.00;16.75;;;8.90;99.90;;;;;;4916096;29;20669;-71
2021/11/04 11:52:31;;;;;;;31.60;16.60;;;9.00;99.90;;;;;;4915950;29;20226;-71
2021/11/04 11:55:09;;;;;;;24.85;15.05;;;8.90;99.90;;;;;;4915059;29;20218;-71
2021/11/04 11:57:39;;;;;;;29.08;16.02;;;9.00;99.90;;;;;;4916302;29;20210;-71
2021/11/04 12:00:07;;;;;;;26.05;16.45;;;8.90;99.90;;;;;;4916113;29;20215;-72
2021/11/04 12:02:41;;;;;;;33.22;15.50;;;8.90;99.90;;;;;;4915848;29;20532;-71
2021/11/04 12:05:37;;;;;;;30.92;16.88;;;8.90;99.90;;;;;;4914416;29;20229;-72
2021/11/04 12:08:35;;;;;;;24.80;15.35;;;8.90;99.90;;;;;;4897284;29;20219;-71
2021/11/04 12:11:05;;;;;;;33.78;15.57;;;8.90;99.90;;;;;;4897174;29;20235;-71
2021/11/04 12:13:38;;;;;;;28.95;17.40;;;9.00;99.90;;;;;;4900735;29;20207;-71
2021/11/04 12:16:16;;;;;;;29.77;17.73;;;8.90;99.90;;;;;;4916165;29;20660;-71
2021/11/04 12:18:51;;;;;;;33.97;17.88;;;8.90;99.90;;;;;;4915951;29;20280;-71
2021/11/04 12:21:23;;;;;;;32.58;16.45;;;8.90;99.90;;;;;;4915860;29;20289;-70
2021/11/04 12:23:51;;;;;;;33.70;16.48;;;9.00;99.90;;;;;;4908889;29;20238;-70
2021/11/04 12:26:33;;;;;;;28.17;16.92;;;9.00;99.90;;;;;;4914062;29;20640;-71
2021/11/04 12:29:01;;;;;;;29.90;16.58;;;9.00;99.90;;;;;;4914702;29;20207;-71
2021/11/04 12:31:28;;;;;;;27.65;16.17;;;8.90;99.90;;;;;;4915737;29;20238;-70
2021/11/04 12:33:57;;;;;;;27.65;16.00;;;8.90;99.90;;;;;;4909824;29;20211;-70
2021/11/04 12:36:31;;;;;;;28.15;16.23;;;9.00;99.90;;;;;;4896011;29;20553;-71
2021/11/04 12:38:58;;;;;;;29.08;16.25;;;8.90;99.90;;;;;;4895143;29;20661;-71
2021/11/04 12:41:25;;;;;;;26.08;16.38;;;8.90;99.90;;;;;;4896351;29;20414;-71
2021/11/04 12:44:02;;;;;;;28.98;15.85;;;8.90;99.90;;;;;;4901258;29;20223;-71
2021/11/04 12:46:31;;;;;;;26.70;14.95;;;8.90;99.90;;;;;;4915324;29;20238;-70
2021/11/04 12:49:00;;;;;;;25.90;15.32;;;8.90;99.90;;;;;;4915154;29;20226;-71
2021/11/04 12:51:28;;;;;;;29.65;16.08;;;8.90;99.90;;;;;;4915370;29;20266;-71
2021/11/04 12:53:55;;;;;;;22.23;14.55;;;8.80;99.90;;;;;;4909496;29;20213;-71
2021/11/04 12:56:38;;;;;;;27.83;15.95;;;8.80;99.90;;;;;;4896381;29;20215;-72
2021/11/04 12:59:06;;;;;;;26.92;14.38;;;8.80;99.90;;;;;;4909599;29;20631;-72
2021/11/04 13:01:50;;;;;;;25.63;15.25;;;8.80;99.90;;;;;;4915188;29;20230;-71
2021/11/04 13:04:24;;;;;;;25.05;13.63;;;8.80;99.90;;;;;;4914130;29;20226;-72
2021/11/04 13:06:54;;;;;;;25.55;15.82;;;8.90;99.90;;;;;;4924477;29;20286;-72
2021/11/04 13:09:22;;;;;;;24.27;14.77;;;8.90;99.90;;;;;;4913108;29;20264;-71
2021/11/04 13:12:05;;;;;;;22.30;14.20;;;8.80;99.90;;;;;;4914871;29;20329;-71
2021/11/04 13:14:47;;;;;;;28.67;15.10;;;8.80;99.90;;;;;;4912254;29;20261;-72
2021/11/04 13:17:14;;;;;;;21.25;12.80;;;8.80;99.90;;;;;;4934066;29;20221;-72
2021/11/04 13:19:53;;;;;;;21.98;14.15;;;8.80;99.90;;;;;;4929582;29;20301;-71
2021/11/04 13:22:20;;;;;;;28.40;14.43;;;8.80;99.90;;;;;;4914546;29;20230;-71
2021/11/04 13:24:47;;;;;;;20.88;12.88;;;8.80;99.90;;;;;;4917011;29;20212;-71
2021/11/04 13:27:15;;;;;;;23.20;13.88;;;8.80;99.90;;;;;;4917637;29;20643;-71
2021/11/04 13:29:51;;;;;;;19.55;13.00;;;8.80;99.90;;;;;;4912884;29;20237;-71
2021/11/04 13:32:18;;;;;;;21.60;12.98;;;8.80;99.90;;;;;;4933662;29;20316;-71
2021/11/04 13:34:45;;;;;;;25.95;14.43;;;8.80;99.90;;;;;;4917437;29;20554;-70
2021/11/04 13:37:16;;;;;;;23.60;13.18;;;8.80;99.90;;;;;;4914136;29;20568;-72
2021/11/04 13:39:44;;;;;;;20.50;13.48;;;8.80;99.90;;;;;;4915125;29;20213;-72
2021/11/04 13:42:31;;;;;;;28.65;14.45;;;8.80;99.90;;;;;;4923135;29;20603;-72
2021/11/04 13:45:15;;;;;;;24.70;14.48;;;8.80;99.90;;;;;;4912745;29;20289;-72
2021/11/04 13:47:44;;;;;;;22.95;13.25;;;8.80;99.90;;;;;;4908629;29;20234;-71
2021/11/04 13:50:14;;;;;;;23.50;13.82;;;8.80;99.90;;;;;;4913381;29;20242;-71
2021/11/04 13:52:42;;;;;;;22.85;15.10;;;8.80;99.90;;;;;;4913886;29;20205;-71
2021/11/04 13:55:25;;;;;;;29.67;14.95;;;8.80;99.90;;;;;;4907288;29;20210;-72
2021/11/04 13:57:54;;;;;;;23.50;13.60;;;8.80;99.90;;;;;;4933126;29;20584;-71
2021/11/04 14:00:24;;;;;;;26.17;13.85;;;8.80;99.90;;;;;;4921714;29;20695;-71
2021/11/04 14:02:57;;;;;;;20.13;12.77;;;8.80;99.90;;;;;;4914349;29;20227;-72
2021/11/04 14:05:25;;;;;;;21.52;12.88;;;8.80;99.90;;;;;;4910434;29;20293;-70
2021/11/04 14:07:52;;;;;;;24.17;15.13;;;8.80;99.90;;;;;;4914001;29;20644;-72
2021/11/04 14:10:19;;;;;;;23.63;14.43;;;8.80;99.90;;;;;;4915547;29;20202;-70
2021/11/04 14:12:49;;;;;;;16.55;11.35;;;8.80;99.90;;;;;;4922069;29;20202;-71
2021/11/04 14:15:18;;;;;;;23.42;15.10;;;8.80;99.90;;;;;;4908830;29;20218;-71
2021/11/04 14:17:47;;;;;;;18.05;11.32;;;8.80;99.90;;;;;;4904518;29;20660;-72
2021/11/04 14:20:14;;;;;;;21.48;13.20;;;8.80;99.90;;;;;;4897256;29;20219;-71
2021/11/04 14:22:41;;;;;;;17.33;11.93;;;8.80;99.90;;;;;;4895759;29;21099;-71
2021/11/04 14:25:10;;;;;;;22.48;14.57;;;8.80;99.90;;;;;;4902886;29;20215;-71
2021/11/04 14:27:38;;;;;;;25.85;14.80;;;8.80;99.90;;;;;;4920881;29;20207;-71
2021/11/04 14:30:06;;;;;;;23.98;13.60;;;8.80;99.90;;;;;;4910304;29;20714;-72
2021/11/04 14:32:32;;;;;;;20.55;13.93;;;8.80;99.90;;;;;;4914156;29;20864;-71
2021/11/04 14:35:00;;;;;;;21.17;13.40;;;8.80;99.90;;;;;;4918955;29;20627;-72
2021/11/04 14:37:27;;;;;;;20.33;12.80;;;8.80;99.90;;;;;;4915378;29;20218;-71
2021/11/04 14:39:54;;;;;;;21.60;16.15;;;8.80;99.90;;;;;;4915468;29;20293;-71
2021/11/04 14:42:21;;;;;;;26.95;16.17;;;8.80;99.90;;;;;;4912879;29;20575;-71
2021/11/04 14:44:48;;;;;;;23.27;14.00;;;8.90;99.90;;;;;;4899007;29;20227;-71
2021/11/04 14:47:14;;;;;;;21.70;13.52;;;8.80;99.90;;;;;;4899332;29;20358;-71
2021/11/04 14:49:42;;;;;;;20.40;13.60;;;8.80;99.90;;;;;;4898531;29;20225;-71
2021/11/04 14:52:10;;;;;;;24.65;13.50;;;8.80;99.90;;;;;;4899932;29;20232;-72
2021/11/04 14:54:37;;;;;;;22.77;13.40;;;8.80;99.90;;;;;;4898585;29;20263;-72
2021/11/04 14:57:04;;;;;;;18.65;12.70;;;8.80;99.90;;;;;;4896290;29;20246;-72
2021/11/04 14:59:30;;;;;;;20.85;14.18;;;8.80;99.90;;;;;;4906861;29;20218;-72
2021/11/04 15:01:57;;;;;;;20.92;13.23;;;8.80;99.90;;;;;;4916627;29;20268;-72
2021/11/04 15:04:24;;;;;;;23.33;12.68;;;8.80;99.90;;;;;;4919096;29;20226;-74
2021/11/04 15:06:50;;;;;;;23.60;14.40;;;8.80;99.90;;;;;;4912484;29;20203;-73
2021/11/04 15:09:19;;;;;;;18.80;12.95;;;8.80;99.90;;;;;;4928916;29;20868;-73
2021/11/04 15:11:45;;;;;;;19.45;13.93;;;8.80;99.90;;;;;;4927796;29;20227;-72
2021/11/04 15:14:16;;;;;;;20.20;13.30;;;8.70;99.90;;;;;;4932109;29;20206;-73
2021/11/04 15:16:43;;;;;;;18.52;14.38;;;8.70;99.90;;;;;;4937042;29;20217;-73
2021/11/04 15:19:11;;;;;;;18.92;13.13;;;8.80;99.90;;;;;;4922336;29;20215;-73
2021/11/04 15:21:38;;;;;;;19.38;12.82;;;8.80;99.90;;;;;;4917465;29;20292;-74
2021/11/04 15:24:05;;;;;;;20.58;13.43;;;8.70;99.90;;;;;;4913350;29;20234;-73
2021/11/04 15:26:33;;;;;;;20.88;14.55;;;8.70;99.90;;;;;;4899310;29;20279;-72
2021/11/04 15:29:00;;;;;;;20.02;12.90;;;8.70;99.90;;;;;;4917873;29;20221;-72
2021/11/04 15:31:26;;;;;;;22.85;12.73;;;8.70;99.90;;;;;;4916815;29;20230;-71
2021/11/04 15:33:53;;;;;;;17.65;12.00;;;8.70;99.90;;;;;;4917210;29;20210;-72
2021/11/04 15:36:20;;;;;;;15.52;11.68;;;8.70;99.90;;;;;;4921759;29;20211;-71
2021/11/04 15:38:47;;;;;;;19.65;12.75;;;8.70;99.90;;;;;;4939452;29;20209;-72
2021/11/04 15:41:15;;;;;;;18.42;13.00;;;8.70;99.90;;;;;;4925955;29;20642;-72
2021/11/04 15:43:44;;;;;;;18.88;12.68;;;8.70;99.90;;;;;;4935363;29;20225;-72
2021/11/04 15:46:12;;;;;;;17.55;11.77;;;8.70;99.90;;;;;;4905012;29;20207;-72
2021/11/04 15:48:39;;;;;;;13.50;9.10;;;8.70;99.90;;;;;;4911066;29;20230;-73
2021/11/04 15:51:06;;;;;;;17.10;12.00;;;8.70;99.90;;;;;;4910323;29;20320;-72
2021/11/04 15:53:40;;;;;;;19.40;12.40;;;8.70;99.90;;;;;;4916447;29;20221;-72
2021/11/04 15:56:07;;;;;;;20.92;12.68;;;8.70;99.90;;;;;;4899308;29;20593;-72
2021/11/04 15:58:33;;;;;;;18.48;12.70;;;8.70;99.90;;;;;;4908052;29;20230;-72
2021/11/04 16:01:02;;;;;;;17.20;11.90;;;8.70;99.90;;;;;;4916523;29;20242;-72
2021/11/04 16:03:29;;;;;;;22.58;12.90;;;8.60;99.90;;;;;;4924631;29;20252;-71
2021/11/04 16:05:55;;;;;;;17.80;12.20;;;8.60;99.90;;;;;;4910833;29;20218;-71
2021/11/04 16:08:22;;;;;;;16.70;11.93;;;8.70;99.90;;;;;;4908069;29;20211;-72
2021/11/04 16:10:50;;;;;;;21.83;13.75;;;8.70;99.90;;;;;;4912762;29;20219;-71
2021/11/04 16:13:17;;;;;;;18.02;12.65;;;8.60;99.90;;;;;;4897089;29;20219;-71
2021/11/04 16:15:43;;;;;;;17.98;12.65;;;8.60;99.90;;;;;;4917620;29;20213;-72
2021/11/04 16:18:12;;;;;;;18.88;12.82;;;8.60;99.90;;;;;;4936011;29;20246;-72
2021/11/04 16:20:38;;;;;;;19.42;13.32;;;8.60;99.90;;;;;;4935087;29;20229;-71
2021/11/04 16:23:05;;;;;;;24.42;12.65;;;8.60;99.90;;;;;;4921053;29;20215;-71
2021/11/04 16:25:32;;;;;;;20.98;15.23;;;8.60;99.90;;;;;;4933932;29;20214;-70
2021/11/04 16:27:59;;;;;;;20.90;13.57;;;8.60;99.90;;;;;;4917011;29;20219;-71
2021/11/04 16:30:27;;;;;;;20.48;13.02;;;8.60;99.90;;;;;;4935180;29;20319;-71
2021/11/04 16:32:53;;;;;;;19.33;13.27;;;8.60;99.90;;;;;;4934752;29;20214;-71
2021/11/04 16:35:21;;;;;;;20.02;12.90;;;8.60;99.90;;;;;;4934824;29;20194;-71
2021/11/04 16:37:54;;;;;;;15.48;10.93;;;8.60;99.90;;;;;;4934373;29;20244;-72
2021/11/04 16:40:24;;;;;;;19.38;13.75;;;8.60;99.90;;;;;;4935249;29;20210;-71
2021/11/04 16:42:51;;;;;;;21.38;15.40;;;8.60;99.90;;;;;;4933932;29;20604;-71
2021/11/04 16:45:20;;;;;;;23.55;13.27;;;8.60;99.90;;;;;;4919231;29;20598;-72
2021/11/04 16:47:48;;;;;;;17.30;12.65;;;8.60;99.90;;;;;;4917618;29;20305;-71
2021/11/04 16:50:15;;;;;;;18.48;13.20;;;8.60;99.90;;;;;;4914966;29;20211;-72
2021/11/04 16:52:43;;;;;;;16.08;13.20;;;8.50;99.90;;;;;;4915934;29;20210;-71
2021/11/04 16:55:11;;;;;;;20.65;12.57;;;8.60;99.90;;;;;;4914609;29;20665;-71
2021/11/04 16:57:38;;;;;;;24.80;13.18;;;8.60;99.90;;;;;;4902758;29;20215;-71
2021/11/04 17:00:07;;;;;;;20.40;12.60;;;8.60;99.90;;;;;;4902065;29;20203;-71
2021/11/04 17:02:34;;;;;;;20.95;11.68;;;8.60;99.90;;;;;;4905128;29;20297;-71
2021/11/04 17:05:01;;;;;;;18.65;11.48;;;8.60;99.90;;;;;;4924141;29;20233;-72
2021/11/04 17:07:27;;;;;;;22.25;13.60;;;8.60;99.90;;;;;;4933692;29;20217;-73
2021/11/04 17:09:55;;;;;;;19.08;13.57;;;8.50;99.90;;;;;;4928936;29;20214;-70
2021/11/04 17:12:25;;;;;;;16.92;11.52;;;8.60;99.90;;;;;;4914965;29;20227;-70
2021/11/04 17:14:52;;;;;;;20.13;13.65;;;8.60;99.90;;;;;;4946216;23;20230;-74
2021/11/04 17:17:19;;;;;;;18.15;12.50;;;8.60;99.90;;;;;;4916295;29;20720;-74
2021/11/04 17:19:46;;;;;;;20.88;13.23;;;8.50;99.90;;;;;;4940868;29;20197;-73
2021/11/04 17:22:12;;;;;;;17.90;12.60;;;8.60;99.90;;;;;;4944413;29;20652;-73
2021/11/04 17:24:39;;;;;;;22.13;14.40;;;8.60;99.90;;;;;;4918967;28;20234;-73
2021/11/04 17:27:08;;;;;;;29.63;18.00;;;8.60;99.90;;;;;;4914731;29;20226;-73
2021/11/04 17:29:35;;;;;;;23.17;15.02;;;8.60;99.90;;;;;;4913877;29;20833;-72
2021/11/04 17:32:03;;;;;;;22.45;14.85;;;8.50;99.90;;;;;;4914181;29;20289;-74
2021/11/04 17:34:30;;;;;;;21.50;12.48;;;8.50;99.90;;;;;;4926021;29;20299;-73
2021/11/04 17:36:57;;;;;;;23.05;14.65;;;8.50;99.90;;;;;;4921874;29;20209;-73
2021/11/04 17:39:24;;;;;;;23.75;14.32;;;8.50;99.90;;;;;;4921660;29;20304;-74
2021/11/04 17:41:50;;;;;;;23.23;14.60;;;8.50;99.90;;;;;;4914405;29;20229;-74
2021/11/04 17:44:18;;;;;;;19.98;13.18;;;8.50;99.90;;;;;;4926319;29;20296;-74
2021/11/04 17:46:46;;;;;;;25.90;15.43;;;8.50;99.90;;;;;;4924882;29;20202;-74
2021/11/04 17:49:13;;;;;;;24.50;14.75;;;8.50;99.90;;;;;;4910718;29;20245;-74